Flugplatz Lechfeld Airport

Bericht für ETSL

vom 31.05. um 04:20 UTC

variable Windrichtung mit 1 kt

Sichtweite 8000 m

Temperatur 4.0°C

Taupunkt 3.0°C

Luftfeuchtigkeit 93%

Luftdruck 1019 hPa

ETSL 310420Z AUTO VRB01KT 8000 // ////// 04/03 Q1019 ///
Keine Prognose (TAF) verfügbar.
Impressum